createdAt,value
2023-04-12T00:01:11.762Z,64.18
2023-04-12T00:03:39.381Z,65.07
2023-04-12T00:06:07.639Z,64.60
2023-04-12T00:08:35.164Z,56.13
2023-04-12T00:11:03.672Z,67.22
2023-04-12T00:13:31.152Z,67.03
2023-04-12T00:15:58.902Z,68.50
2023-04-12T00:18:26.364Z,68.97
2023-04-12T00:20:55.670Z,67.25
2023-04-12T00:23:23.002Z,67.15
2023-04-12T00:25:50.704Z,68.53
2023-04-12T00:28:18.226Z,68.57
2023-04-12T00:30:46.053Z,64.85
2023-04-12T00:33:13.368Z,67.30
2023-04-12T00:35:41.141Z,60.15
2023-04-12T00:38:10.853Z,74.85
2023-04-12T00:40:42.635Z,63.30
2023-04-12T00:43:15.332Z,68.93
2023-04-12T00:45:43.147Z,61.67
2023-04-12T00:48:10.855Z,68.80
2023-04-12T00:50:44.663Z,58.85
2023-04-12T00:53:14.196Z,63.45
2023-04-12T00:55:44.725Z,60.67
2023-04-12T00:58:13.936Z,55.58
2023-04-12T01:00:41.950Z,56.85
2023-04-12T01:03:09.353Z,62.53
2023-04-12T01:05:49.216Z,53.28
2023-04-12T01:08:34.139Z,46.95
2023-04-12T01:11:11.319Z,48.83
2023-04-12T01:14:03.486Z,51.67
2023-04-12T01:16:42.132Z,55.92
2023-04-12T01:19:31.886Z,49.70
2023-04-12T01:22:25.054Z,52.85
2023-04-12T01:25:24.307Z,54.35
2023-04-12T01:27:57.514Z,56.50
2023-04-12T01:30:28.125Z,51.30
2023-04-12T01:32:57.867Z,44.40
2023-04-12T01:35:29.257Z,51.00
2023-04-12T01:37:58.331Z,47.40
2023-04-12T01:40:29.677Z,48.67
2023-04-12T01:43:10.488Z,50.95
2023-04-12T01:45:39.715Z,49.13
2023-04-12T01:48:09.210Z,51.28
2023-04-12T01:50:49.876Z,50.58
2023-04-12T01:53:32.841Z,53.97
2023-04-12T01:56:07.134Z,54.10
2023-04-12T01:58:36.085Z,54.30
2023-04-12T02:01:04.010Z,53.35
2023-04-12T02:03:31.686Z,72.45
2023-04-12T02:05:59.979Z,62.05
2023-04-12T02:08:27.626Z,64.88
2023-04-12T02:10:55.080Z,65.95
2023-04-12T02:13:22.722Z,66.90
2023-04-12T02:15:50.269Z,60.95
2023-04-12T02:18:17.839Z,61.88
2023-04-12T02:20:45.221Z,64.85
2023-04-12T02:23:13.400Z,59.70
2023-04-12T02:25:41.390Z,63.80
2023-04-12T02:28:09.006Z,56.97
2023-04-12T02:30:36.608Z,67.18
2023-04-12T02:33:06.154Z,65.28
2023-04-12T02:35:37.005Z,64.45
2023-04-12T02:38:09.173Z,67.55
2023-04-12T02:40:42.906Z,73.03
2023-04-12T02:43:15.565Z,65.82
2023-04-12T02:45:47.552Z,67.65
2023-04-12T02:48:15.836Z,72.85
2023-04-12T02:50:43.926Z,67.70
2023-04-12T02:53:17.639Z,69.70
2023-04-12T02:55:49.698Z,69.50
2023-04-12T02:58:22.451Z,63.53
2023-04-12T03:00:51.768Z,69.68
2023-04-12T03:03:26.155Z,71.05
2023-04-12T03:05:56.663Z,65.78
2023-04-12T03:08:24.582Z,68.88
2023-04-12T03:10:55.850Z,63.28
2023-04-12T03:13:24.810Z,64.40
2023-04-12T03:15:59.872Z,68.00
2023-04-12T03:18:34.481Z,64.22
2023-04-12T03:21:02.498Z,69.13
2023-04-12T03:23:30.662Z,64.32
2023-04-12T03:26:11.756Z,66.22
2023-04-12T03:28:41.483Z,68.40
2023-04-12T03:31:08.976Z,74.20
2023-04-12T03:33:41.001Z,68.22
2023-04-12T03:36:17.416Z,76.53
2023-04-12T03:38:49.205Z,65.28
2023-04-12T03:41:16.589Z,78.85
2023-04-12T03:43:44.035Z,65.60
2023-04-12T03:46:18.158Z,71.82
2023-04-12T03:48:52.165Z,75.25
2023-04-12T03:51:22.328Z,71.35
2023-04-12T03:53:50.114Z,73.80
2023-04-12T03:56:17.288Z,77.68
2023-04-12T03:58:48.596Z,74.63
2023-04-12T04:01:18.100Z,72.60
2023-04-12T04:03:46.916Z,73.70
2023-04-12T04:06:25.695Z,68.70
2023-04-12T04:08:57.579Z,69.07
2023-04-12T04:11:25.945Z,65.18
2023-04-12T04:13:58.710Z,64.10
2023-04-12T04:16:26.266Z,72.07
2023-04-12T04:18:55.183Z,73.50
2023-04-12T04:21:24.215Z,69.72
2023-04-12T04:23:58.678Z,65.18
2023-04-12T04:26:32.333Z,71.93
2023-04-12T04:29:06.414Z,70.47
2023-04-12T04:31:37.764Z,69.18
2023-04-12T04:34:07.069Z,75.45
2023-04-12T04:39:09.107Z,66.97
2023-04-12T04:41:41.477Z,54.47
2023-04-12T04:44:19.475Z,59.97
2023-04-12T04:46:59.169Z,55.22
2023-04-12T04:49:26.749Z,55.00
2023-04-12T04:52:00.266Z,57.92
2023-04-12T04:54:27.864Z,53.33
2023-04-12T04:56:56.373Z,46.55
2023-04-12T04:59:23.966Z,50.90
2023-04-12T05:01:53.135Z,48.53
2023-04-12T05:04:21.176Z,52.70
2023-04-12T05:06:48.406Z,50.15
2023-04-12T05:09:19.309Z,53.25
2023-04-12T05:11:54.015Z,47.90
2023-04-12T05:14:23.339Z,55.42
2023-04-12T05:16:51.147Z,53.25
2023-04-12T05:19:18.930Z,50.05
2023-04-12T05:21:46.189Z,55.95
2023-04-12T05:24:13.851Z,48.42
2023-04-12T05:26:45.307Z,49.83
2023-04-12T05:29:14.556Z,44.60
2023-04-12T05:31:42.805Z,40.92
2023-04-12T05:34:17.431Z,44.75
2023-04-12T05:36:52.303Z,49.95
2023-04-12T05:39:20.898Z,45.30
2023-04-12T05:41:49.108Z,49.65
2023-04-12T05:44:16.334Z,50.45
2023-04-12T05:46:43.956Z,49.80
2023-04-12T05:49:11.293Z,49.85
2023-04-12T05:51:41.338Z,47.55
2023-04-12T05:54:15.913Z,46.38
2023-04-12T05:56:43.730Z,47.45
2023-04-12T05:59:12.406Z,45.70
2023-04-12T06:01:42.611Z,49.42
2023-04-12T06:04:10.226Z,44.55
2023-04-12T06:06:39.312Z,45.65
2023-04-12T06:09:06.543Z,42.08
2023-04-12T06:11:34.015Z,45.45
2023-04-12T06:14:02.273Z,40.38
2023-04-12T06:16:30.193Z,54.20
2023-04-12T06:18:58.129Z,49.92
2023-04-12T06:21:27.607Z,54.15
2023-04-12T06:23:55.559Z,50.40
2023-04-12T06:26:23.155Z,62.15
2023-04-12T06:28:50.559Z,46.22
2023-04-12T06:31:18.199Z,46.97
2023-04-12T06:33:45.933Z,41.95
2023-04-12T06:36:15.537Z,45.95
2023-04-12T06:38:45.522Z,44.90
2023-04-12T06:41:13.032Z,39.70
2023-04-12T06:43:40.511Z,37.63
2023-04-12T06:46:09.182Z,35.55
2023-04-12T06:48:36.450Z,40.63
2023-04-12T06:51:04.137Z,43.72
2023-04-12T06:53:31.468Z,46.85
2023-04-12T06:56:03.536Z,40.10
2023-04-12T06:58:31.845Z,39.05
2023-04-12T07:01:10.248Z,39.75
2023-04-12T07:03:37.634Z,45.88
2023-04-12T07:06:21.494Z,37.33
2023-04-12T07:08:52.638Z,45.72
2023-04-12T07:11:23.024Z,51.70
2023-04-12T07:13:51.504Z,49.72
2023-04-12T07:16:19.242Z,48.22
2023-04-12T07:18:46.541Z,47.05
2023-04-12T07:21:14.588Z,51.88
2023-04-12T07:23:41.931Z,49.05
2023-04-12T07:26:09.413Z,37.70
2023-04-12T07:28:36.640Z,47.33
2023-04-12T07:31:08.102Z,34.50
2023-04-12T07:33:38.237Z,31.95
2023-04-12T07:38:35.524Z,31.05
2023-04-12T07:41:03.022Z,38.75
2023-04-12T07:43:30.215Z,31.35
2023-04-12T07:45:58.840Z,30.65
2023-04-12T07:48:26.334Z,28.70
2023-04-12T07:50:53.869Z,30.67
2023-04-12T07:53:27.762Z,32.97
2023-04-12T07:55:56.346Z,32.72
2023-04-12T07:58:24.816Z,33.47
2023-04-12T08:00:53.833Z,26.67
2023-04-12T08:03:21.300Z,27.48
2023-04-12T08:05:53.505Z,23.05
2023-04-12T08:08:22.391Z,24.92
2023-04-12T08:10:51.338Z,24.02
2023-04-12T08:13:19.194Z,28.65
2023-04-12T08:15:47.473Z,26.70
2023-04-12T08:18:15.881Z,25.42
2023-04-12T08:20:47.194Z,22.42
2023-04-12T08:23:14.561Z,24.35
2023-04-12T08:25:42.304Z,22.30
2023-04-12T08:28:09.565Z,23.40
2023-04-12T08:30:37.459Z,19.98
2023-04-12T08:33:04.955Z,30.50
2023-04-12T08:35:32.862Z,22.70
2023-04-12T08:38:06.706Z,20.48
2023-04-12T08:40:34.448Z,26.17
2023-04-12T08:43:05.642Z,20.35
2023-04-12T08:45:36.226Z,23.90
2023-04-12T08:48:06.057Z,20.38
2023-04-12T08:50:33.807Z,22.00
2023-04-12T08:53:01.237Z,22.45
2023-04-12T08:55:31.198Z,19.38
2023-04-12T08:57:59.836Z,20.95
2023-04-12T09:00:27.665Z,21.13
2023-04-12T09:02:55.194Z,19.58
2023-04-12T09:05:29.975Z,18.02
2023-04-12T09:07:58.179Z,12.10
2023-04-12T09:10:36.893Z,12.80
2023-04-12T09:13:05.495Z,13.52
2023-04-12T09:15:34.469Z,15.68
2023-04-12T09:18:10.220Z,15.82
2023-04-12T09:20:39.168Z,16.90
2023-04-12T09:23:38.787Z,10.63
2023-04-12T09:26:08.133Z,13.05
2023-04-12T09:28:35.313Z,11.05
2023-04-12T09:31:04.119Z,10.38
2023-04-12T09:33:37.236Z,11.20
2023-04-12T09:36:06.715Z,10.07
2023-04-12T09:38:36.833Z,10.80
2023-04-12T09:41:21.346Z,14.50
2023-04-12T09:43:51.069Z,13.02
2023-04-12T09:46:19.015Z,10.98
2023-04-12T09:48:51.205Z,10.57
2023-04-12T09:51:29.519Z,15.20
2023-04-12T09:54:04.501Z,13.43
2023-04-12T09:56:35.702Z,10.63
2023-04-12T09:59:05.011Z,15.02
2023-04-12T10:01:42.954Z,13.07
2023-04-12T10:04:10.690Z,9.07
2023-04-12T10:06:39.145Z,10.90
2023-04-12T10:09:08.001Z,10.35
2023-04-12T10:11:36.188Z,10.15
2023-04-12T10:14:03.791Z,9.02
2023-04-12T10:16:33.571Z,9.30
2023-04-12T10:19:04.424Z,12.10
2023-04-12T10:21:32.256Z,7.78
2023-04-12T10:24:00.667Z,10.70
2023-04-12T10:26:28.579Z,12.75
2023-04-12T10:29:21.981Z,11.35
2023-04-12T10:31:50.758Z,13.82
2023-04-12T10:34:18.370Z,12.13
2023-04-12T10:36:53.460Z,9.77
2023-04-12T10:39:47.256Z,15.32
2023-04-12T10:42:25.324Z,13.88
2023-04-12T10:45:30.422Z,15.18
2023-04-12T10:48:04.316Z,19.08
2023-04-12T10:50:34.064Z,17.33
2023-04-12T10:53:22.082Z,14.80
2023-04-12T10:55:49.472Z,18.88
2023-04-12T10:58:50.660Z,20.65
2023-04-12T11:01:21.750Z,18.00
2023-04-12T11:04:10.817Z,15.30
2023-04-12T11:07:02.967Z,16.88
2023-04-12T11:09:57.785Z,19.38
2023-04-12T11:12:29.377Z,16.08
2023-04-12T11:15:03.580Z,17.10
2023-04-12T11:17:41.415Z,20.15
2023-04-12T11:20:15.435Z,17.70
2023-04-12T11:22:42.877Z,21.90
2023-04-12T11:25:10.738Z,18.42
2023-04-12T11:27:38.171Z,14.30
2023-04-12T11:30:06.619Z,17.88
2023-04-12T11:32:41.354Z,15.32
2023-04-12T11:35:09.358Z,14.75
2023-04-12T11:37:39.040Z,11.93
2023-04-12T11:40:07.485Z,13.82
2023-04-12T11:42:35.000Z,12.35
2023-04-12T11:45:07.745Z,12.73
2023-04-12T11:47:44.892Z,17.98
2023-04-12T11:50:13.156Z,12.48
2023-04-12T11:52:41.414Z,15.50
2023-04-12T11:55:11.251Z,14.82
2023-04-12T11:57:39.793Z,17.92
2023-04-12T12:00:08.085Z,13.05
2023-04-12T12:02:52.189Z,14.43
2023-04-12T12:05:30.040Z,17.38
2023-04-12T12:07:58.905Z,18.33
2023-04-12T12:10:43.764Z,17.40
2023-04-12T12:13:16.311Z,11.27
2023-04-12T12:15:47.765Z,16.45
2023-04-12T12:18:15.242Z,18.23
2023-04-12T12:20:49.911Z,12.45
2023-04-12T12:23:31.390Z,12.68
2023-04-12T12:26:17.670Z,14.82
2023-04-12T12:28:53.846Z,21.65
2023-04-12T12:31:24.403Z,13.95
2023-04-12T12:33:57.054Z,18.08
2023-04-12T12:36:35.872Z,15.75
2023-04-12T12:39:11.974Z,13.48
2023-04-12T12:41:41.247Z,13.10
2023-04-12T12:44:11.169Z,12.35
2023-04-12T12:49:09.041Z,13.15
2023-04-12T12:51:36.642Z,17.52
2023-04-12T12:54:04.301Z,14.60
2023-04-12T12:56:32.099Z,15.38
2023-04-12T12:58:59.689Z,20.33
2023-04-12T13:01:27.673Z,17.27
2023-04-12T13:03:55.817Z,15.65
2023-04-12T13:06:23.557Z,10.90
2023-04-12T13:08:52.329Z,12.13
2023-04-12T13:11:20.444Z,17.75
2023-04-12T13:13:48.351Z,14.85
2023-04-12T13:16:16.245Z,12.10
2023-04-12T13:18:44.332Z,16.15
2023-04-12T13:21:11.764Z,18.52
2023-04-12T13:23:39.377Z,15.40
2023-04-12T13:26:06.993Z,14.25
2023-04-12T13:28:34.553Z,15.70
2023-04-12T13:31:01.956Z,16.00
2023-04-12T13:33:29.421Z,18.58
2023-04-12T13:35:56.833Z,16.85
2023-04-12T13:38:24.418Z,15.60
2023-04-12T13:40:51.606Z,14.30
2023-04-12T13:43:19.652Z,11.90
2023-04-12T13:45:47.160Z,13.93
2023-04-12T13:48:14.697Z,10.13
2023-04-12T13:50:42.000Z,17.30
2023-04-12T13:53:09.469Z,14.00
2023-04-12T13:55:36.866Z,9.55
2023-04-12T13:58:04.539Z,8.27
2023-04-12T14:00:34.366Z,13.10
2023-04-12T14:03:02.589Z,11.68
2023-04-12T14:05:30.333Z,14.23
2023-04-12T14:07:57.752Z,10.80
2023-04-12T14:10:25.250Z,17.13
2023-04-12T14:12:52.963Z,13.68
2023-04-12T14:15:20.267Z,14.52
2023-04-12T14:17:48.359Z,21.77
2023-04-12T14:20:17.962Z,37.50
2023-04-12T14:22:46.763Z,12.20
2023-04-12T14:25:14.480Z,21.05
2023-04-12T14:27:42.106Z,12.52
2023-04-12T14:30:09.539Z,11.55
2023-04-12T14:32:37.526Z,10.95
2023-04-12T14:35:05.421Z,12.70
2023-04-12T14:37:33.261Z,12.05
2023-04-12T14:40:00.695Z,13.07
2023-04-12T14:42:28.369Z,14.52
2023-04-12T14:44:55.836Z,23.65
2023-04-12T14:47:23.453Z,11.32
2023-04-12T14:49:50.801Z,12.85
2023-04-12T14:52:18.929Z,13.15
2023-04-12T14:54:46.422Z,12.05
2023-04-12T14:57:15.492Z,11.82
2023-04-12T14:59:43.024Z,11.88
2023-04-12T15:02:11.364Z,11.27
2023-04-12T15:04:38.854Z,10.85
2023-04-12T15:07:07.645Z,9.65
2023-04-12T15:09:35.489Z,12.98
2023-04-12T15:12:04.319Z,11.23
2023-04-12T15:14:32.047Z,14.77
2023-04-12T15:16:59.900Z,10.13
2023-04-12T15:19:27.518Z,28.52
2023-04-12T15:21:55.876Z,10.93
2023-04-12T15:24:24.098Z,8.48
2023-04-12T15:26:53.220Z,7.30
2023-04-12T15:29:22.851Z,7.10
2023-04-12T15:31:51.179Z,9.65
2023-04-12T15:34:18.909Z,5.95
2023-04-12T15:36:47.146Z,13.35
2023-04-12T15:39:15.139Z,11.00
2023-04-12T15:41:43.554Z,7.47
2023-04-12T15:44:14.678Z,6.95
2023-04-12T15:46:43.378Z,6.63
2023-04-12T15:49:11.688Z,6.65
2023-04-12T15:51:39.925Z,6.10
2023-04-12T15:54:07.549Z,8.90
2023-04-12T15:56:37.870Z,10.45
2023-04-12T15:59:05.903Z,7.47
2023-04-12T16:01:35.969Z,7.93
2023-04-12T16:04:05.234Z,14.18
2023-04-12T16:06:38.033Z,11.27
2023-04-12T16:09:06.792Z,9.15
2023-04-12T16:11:35.328Z,27.33
2023-04-12T16:14:03.204Z,6.88
2023-04-12T16:16:31.388Z,9.57
2023-04-12T16:19:00.491Z,14.02
2023-04-12T16:21:30.287Z,10.38
2023-04-12T16:23:58.660Z,7.25
2023-04-12T16:26:27.269Z,8.18
2023-04-12T16:28:55.366Z,7.75
2023-04-12T16:31:25.323Z,17.33
2023-04-12T16:33:53.122Z,11.85
2023-04-12T16:36:23.400Z,10.68
2023-04-12T16:38:55.179Z,11.13
2023-04-12T16:41:23.166Z,13.88
2023-04-12T16:43:53.611Z,10.52
2023-04-12T16:46:21.494Z,9.47
2023-04-12T16:48:48.992Z,30.55
2023-04-12T16:51:17.007Z,10.25
2023-04-12T16:53:44.278Z,11.63
2023-04-12T16:56:11.823Z,21.48
2023-04-12T16:58:39.122Z,14.57
2023-04-12T17:01:08.259Z,14.70
2023-04-12T17:03:36.021Z,19.85
2023-04-12T17:06:04.465Z,11.73
2023-04-12T17:08:31.836Z,18.40
2023-04-12T17:10:59.658Z,15.05
2023-04-12T17:13:26.827Z,15.18
2023-04-12T17:15:54.492Z,17.02
2023-04-12T17:18:21.877Z,19.98
2023-04-12T17:20:49.366Z,17.77
2023-04-12T17:23:16.825Z,22.35
2023-04-12T17:25:44.830Z,21.20
2023-04-12T17:28:13.047Z,21.45
2023-04-12T17:30:41.208Z,25.80
2023-04-12T17:33:08.753Z,25.02
2023-04-12T17:35:36.638Z,28.55
2023-04-12T17:38:03.928Z,27.60
2023-04-12T17:40:31.427Z,26.83
2023-04-12T17:42:58.900Z,27.75
2023-04-12T17:45:26.537Z,32.22
2023-04-12T17:47:54.760Z,21.35
2023-04-12T17:50:22.694Z,25.20
2023-04-12T17:52:50.194Z,26.45
2023-04-12T17:55:23.065Z,28.48
2023-04-12T17:57:50.685Z,28.40
2023-04-12T18:00:19.133Z,21.65
2023-04-12T18:02:46.904Z,26.08
2023-04-12T18:05:15.441Z,29.33
2023-04-12T18:07:43.030Z,28.98
2023-04-12T18:10:15.714Z,28.70
2023-04-12T18:15:12.043Z,29.20
2023-04-12T18:17:39.838Z,32.08
2023-04-12T18:20:10.567Z,36.40
2023-04-12T18:22:38.600Z,31.65
2023-04-12T18:25:08.192Z,31.65
2023-04-12T18:27:39.515Z,33.08
2023-04-12T18:30:08.358Z,33.03
2023-04-12T18:32:35.868Z,27.48
2023-04-12T18:35:04.675Z,34.97
2023-04-12T18:37:31.900Z,34.97
2023-04-12T18:39:59.871Z,37.95
2023-04-12T18:42:27.650Z,32.45
2023-04-12T18:44:56.470Z,30.73
2023-04-12T18:47:26.740Z,32.55
2023-04-12T18:49:54.916Z,36.92
2023-04-12T18:52:22.470Z,35.17
2023-04-12T18:54:49.949Z,29.73
2023-04-12T18:57:17.605Z,33.85
2023-04-12T18:59:47.844Z,34.05
2023-04-12T19:02:15.547Z,35.65
2023-04-12T19:04:43.031Z,29.00
2023-04-12T19:07:10.391Z,31.33
2023-04-12T19:09:38.611Z,32.85
2023-04-12T19:12:06.281Z,36.53
2023-04-12T19:14:34.114Z,36.85
2023-04-12T19:17:01.469Z,33.28
2023-04-12T19:19:29.362Z,31.48
2023-04-12T19:21:57.059Z,31.35
2023-04-12T19:24:24.683Z,41.83
2023-04-12T19:26:51.978Z,37.10
2023-04-12T19:29:21.203Z,39.80
2023-04-12T19:31:49.185Z,42.88
2023-04-12T19:34:17.939Z,33.85
2023-04-12T19:36:45.921Z,51.22
2023-04-12T19:39:13.485Z,37.20
2023-04-12T19:41:40.756Z,42.03
2023-04-12T19:44:08.445Z,42.10
2023-04-12T19:46:38.748Z,36.75
2023-04-12T19:49:06.635Z,45.22
2023-04-12T19:51:34.823Z,40.17
2023-04-12T19:54:02.946Z,39.38
2023-04-12T19:56:31.498Z,42.97
2023-04-12T19:58:59.995Z,43.97
2023-04-12T20:01:27.643Z,41.35
2023-04-12T20:03:55.434Z,37.78
2023-04-12T20:06:23.241Z,40.20
2023-04-12T20:08:51.294Z,44.08
2023-04-12T20:11:18.528Z,44.22
2023-04-12T20:13:46.269Z,45.67
2023-04-12T20:16:13.511Z,45.45
2023-04-12T20:18:41.388Z,46.42
2023-04-12T20:21:10.221Z,44.22
2023-04-12T20:23:37.871Z,47.40
2023-04-12T20:26:05.645Z,40.90
2023-04-12T20:28:33.545Z,39.85
2023-04-12T20:31:01.324Z,42.28
2023-04-12T20:33:29.394Z,42.00
2023-04-12T20:35:56.695Z,43.85
2023-04-12T20:38:24.216Z,40.95
2023-04-12T20:40:51.630Z,41.83
2023-04-12T20:43:19.054Z,49.22
2023-04-12T20:45:46.930Z,40.03
2023-04-12T20:48:14.751Z,42.65
2023-04-12T20:50:42.460Z,41.38
2023-04-12T20:53:15.166Z,37.92
2023-04-12T20:55:42.559Z,40.03
2023-04-12T20:58:13.220Z,34.83
2023-04-12T21:00:40.716Z,38.33
2023-04-12T21:03:08.602Z,43.38
2023-04-12T21:05:35.866Z,38.67
2023-04-12T21:08:03.383Z,41.05
2023-04-12T21:10:30.669Z,45.42
2023-04-12T21:13:01.885Z,39.53
2023-04-12T21:15:30.134Z,52.58
2023-04-12T21:17:57.764Z,40.17
2023-04-12T21:20:25.488Z,43.30
2023-04-12T21:22:53.705Z,41.70
2023-04-12T21:25:21.327Z,50.92
2023-04-12T21:27:49.753Z,39.55
2023-04-12T21:30:17.383Z,40.80
2023-04-12T21:32:45.353Z,39.50
2023-04-12T21:35:16.432Z,40.35
2023-04-12T21:37:44.025Z,44.25
2023-04-12T21:40:12.587Z,44.67
2023-04-12T21:42:41.445Z,52.17
2023-04-12T21:45:09.918Z,40.47
2023-04-12T21:47:40.645Z,47.15
2023-04-12T21:50:11.743Z,70.05
2023-04-12T21:52:41.197Z,53.53
2023-04-12T21:55:08.509Z,46.25
2023-04-12T21:57:36.633Z,48.15
2023-04-12T22:00:09.985Z,49.40
2023-04-12T22:02:41.100Z,44.20
2023-04-12T22:05:08.896Z,47.80
2023-04-12T22:07:40.877Z,48.85
2023-04-12T22:10:12.133Z,47.33
2023-04-12T22:12:41.183Z,47.17
2023-04-12T22:15:11.529Z,39.25
2023-04-12T22:17:39.602Z,43.17
2023-04-12T22:20:08.450Z,42.85
2023-04-12T22:22:37.518Z,36.97
2023-04-12T22:25:07.653Z,41.47
2023-04-12T22:27:35.232Z,39.55
2023-04-12T22:30:02.476Z,46.28
2023-04-12T22:32:32.031Z,37.50
2023-04-12T22:35:08.305Z,41.40
2023-04-12T22:37:41.527Z,44.20
2023-04-12T22:40:12.478Z,37.97
2023-04-12T22:42:47.188Z,41.60
2023-04-12T22:45:18.147Z,38.13
2023-04-12T22:47:45.931Z,42.47
2023-04-12T22:50:13.438Z,38.53
2023-04-12T22:52:41.903Z,39.10
2023-04-12T22:55:12.950Z,45.53
2023-04-12T22:57:40.414Z,42.90
2023-04-12T23:00:08.775Z,46.28
2023-04-12T23:02:36.368Z,46.97
2023-04-12T23:05:04.499Z,39.78
2023-04-12T23:07:32.080Z,40.15
2023-04-12T23:09:59.388Z,49.10
2023-04-12T23:12:26.914Z,45.72
2023-04-12T23:14:55.705Z,40.45
2023-04-12T23:17:23.447Z,44.28
2023-04-12T23:19:51.686Z,41.03
2023-04-12T23:22:41.656Z,43.53
2023-04-12T23:25:41.816Z,39.90
2023-04-12T23:28:14.711Z,40.58
2023-04-12T23:30:49.862Z,46.00
2023-04-12T23:33:20.269Z,43.33
2023-04-12T23:35:52.286Z,41.50
2023-04-12T23:38:24.584Z,41.05
2023-04-12T23:40:54.688Z,43.72
2023-04-12T23:43:23.329Z,39.13
2023-04-12T23:45:51.713Z,39.63
2023-04-12T23:48:19.537Z,41.70
2023-04-12T23:50:46.763Z,43.55
2023-04-12T23:53:15.508Z,40.15
2023-04-12T23:55:44.530Z,40.78
2023-04-12T23:58:12.100Z,40.28
